Terminal Aerodrome Forecast
Issued by NWS

Home | Current Version | Previous Version | Graphics & Text | Print | Product List | Glossary On
Versions: 1 2 3 4 5 6 7 8 9 10 11 12 13 14 15 16 17 18 19 20 21 22
000
FTUS43 KABR 301729
TAFMBG
TAF
KMBG 301729Z 3018/0118 16007KT P6SM VCSH FEW070 SCT080
     FM302300 13006KT P6SM OVC100
     FM010500 10005KT P6SM VCTS OVC070CB
     FM010700 12005KT P6SM VCSH OVC070
     FM010900 12005KT P6SM BKN100=

USA.gov is the U.S. government's official web portal to all federal, state and local government web resources and services.